Time;durP1;ratioP1;P1;durP2;ratioP2;P2;SDS_P1;SDS_P2;PMS_P1;PMS_P2;Temp;Humidity;BMP_temperature;BMP_pressure;BME280_temperature;BME280_humidity;BME280_pressure;Samples;Min_cycle;Max_cycle;Signal;HPM_P1;HPM_P2
2023/08/20 00:03:46;;;;;;;;;;;22.70;74.30;;;21.71;64.01;100215.16;10367000;28;957;-74
2023/08/20 00:08:41;;;;;;;;;;;22.70;74.30;;;21.70;64.02;100219.59;10366446;28;1400;-74
2023/08/20 00:13:37;;;;;;;;;;;22.70;74.30;;;21.71;63.91;100216.00;10366935;28;859;-74
2023/08/20 00:18:32;;;;;;;;;;;22.70;74.30;;;21.70;63.85;100226.72;10366646;28;1956;-75
2023/08/20 00:23:28;;;;;;;;;;;22.70;74.30;;;21.70;63.98;100224.91;10366700;28;838;-74
2023/08/20 00:28:23;;;;;;;;;;;22.60;74.20;;;21.70;63.79;100224.91;10367074;28;1385;-74
2023/08/20 00:33:18;;;;;;;;;;;22.60;74.20;;;21.70;64.07;100234.69;10366452;28;904;-74
2023/08/20 00:38:14;;;;;;;;;;;22.70;74.30;;;21.67;63.87;100225.94;10366286;28;1965;-75
2023/08/20 00:43:10;;;;;;;;;;;22.60;74.20;;;21.67;64.01;100233.03;10367189;28;881;-75
2023/08/20 00:48:05;;;;;;;;;;;22.60;74.20;;;21.69;63.94;100247.06;10366137;28;878;-75
2023/08/20 00:53:01;;;;;;;;;;;22.60;74.20;;;21.69;63.84;100243.56;10365442;28;862;-75
2023/08/20 00:57:56;;;;;;;;;;;22.60;74.20;;;21.68;63.79;100248.00;10365305;28;1965;-75
2023/08/20 01:02:51;;;;;;;;;;;22.60;74.20;;;21.67;63.81;100241.84;10366503;28;794;-75
2023/08/20 01:07:47;;;;;;;;;;;22.60;74.10;;;21.68;64.00;100221.47;10366535;28;838;-74
2023/08/20 01:12:42;;;;;;;;;;;22.60;74.20;;;21.67;63.84;100220.63;10365752;28;783;-75
2023/08/20 01:17:37;;;;;;;;;;;22.60;74.20;;;21.67;63.81;100212.66;10364965;28;1965;-74
2023/08/20 01:22:33;;;;;;;;;;;22.60;74.20;;;21.66;63.88;100202.97;10365095;28;854;-75
2023/08/20 01:27:28;;;;;;;;;;;22.60;74.10;;;21.67;63.95;100188.78;10367338;28;901;-75
2023/08/20 01:32:24;;;;;;;;;;;22.60;74.20;;;21.65;64.08;100190.66;10372946;28;1318;-75
2023/08/20 01:37:19;;;;;;;;;;;22.60;74.20;;;21.65;63.85;100198.63;10372906;28;1902;-75
2023/08/20 01:42:14;;;;;;;;;;;22.60;74.20;;;21.65;63.83;100188.00;10373385;28;874;-75
2023/08/20 01:47:10;;;;;;;;;;;22.60;74.20;;;21.67;64.00;100214.47;10373190;28;920;-74
2023/08/20 01:52:05;;;;;;;;;;;22.60;74.20;;;21.65;63.81;100206.56;10373001;28;906;-74
2023/08/20 01:57:01;;;;;;;;;;;22.60;74.20;;;21.65;63.81;100206.56;10372738;28;1961;-74
2023/08/20 02:01:56;;;;;;;;;;;22.60;74.20;;;21.64;63.77;100215.47;10372610;28;802;-74
2023/08/20 02:06:51;;;;;;;;;;;22.60;74.20;;;21.64;64.04;100214.59;10371858;28;905;-74
2023/08/20 02:11:47;;;;;;;;;;;22.60;74.20;;;21.63;63.73;100218.19;10372243;28;807;-75
2023/08/20 02:16:42;;;;;;;;;;;22.60;74.20;;;21.62;63.80;100213.84;10371937;28;1959;-75
2023/08/20 02:21:37;;;;;;;;;;;22.60;74.20;;;21.63;63.78;100220.84;10371882;28;905;-74
2023/08/20 02:26:33;;;;;;;;;;;22.60;74.20;;;21.62;63.73;100212.03;10371071;28;945;-74
2023/08/20 02:31:28;;;;;;;;;;;22.60;74.20;;;21.62;63.99;100206.75;10370615;28;1163;-75
2023/08/20 02:36:24;;;;;;;;;;;22.50;74.10;;;21.62;64.00;100208.53;10370597;28;1906;-75
2023/08/20 02:41:19;;;;;;;;;;;22.50;74.10;;;21.63;63.89;100224.34;10369812;28;897;-75
2023/08/20 02:46:15;;;;;;;;;;;22.60;74.20;;;21.60;63.94;100216.56;10370338;28;947;-74
2023/08/20 02:51:10;;;;;;;;;;;22.60;74.20;;;21.60;64.01;100219.22;10370107;28;890;-75
2023/08/20 02:56:05;;;;;;;;;;;22.50;74.10;;;21.61;63.96;100214.75;10370174;28;1965;-74
2023/08/20 03:01:01;;;;;;;;;;;22.50;74.10;;;21.61;63.82;100233.34;10369710;28;802;-75
2023/08/20 03:05:56;;;;;;;;;;;22.50;74.10;;;21.59;63.84;100233.44;10369518;28;902;-74
2023/08/20 03:10:51;;;;;;;;;;;22.50;74.10;;;21.59;63.76;100252.00;10368674;28;827;-75
2023/08/20 03:15:47;;;;;;;;;;;22.50;74.10;;;21.59;63.90;100259.97;10368992;28;1965;-75
2023/08/20 03:20:42;;;;;;;;;;;22.50;74.20;;;21.58;63.81;100252.91;10368964;28;1350;-75
2023/08/20 03:25:38;;;;;;;;;;;22.50;74.10;;;21.59;63.86;100259.09;10369952;28;945;-75
2023/08/20 03:30:33;;;;;;;;;;;22.50;74.10;;;21.58;63.78;100254.72;10368429;28;1479;-75
2023/08/20 03:35:29;;;;;;;;;;;22.50;74.10;;;21.57;64.03;100256.53;10368252;28;1898;-74
2023/08/20 03:40:24;;;;;;;;;;;22.50;74.10;;;21.57;64.03;100253.00;10368186;28;980;-74
2023/08/20 03:45:19;;;;;;;;;;;22.50;74.20;;;21.55;63.80;100242.47;10367282;28;1172;-74
2023/08/20 03:50:15;;;;;;;;;;;22.50;74.20;;;21.55;63.79;100247.78;10367932;28;872;-74
2023/08/20 03:55:11;;;;;;;;;;;22.50;74.20;;;21.54;63.93;100248.72;10367218;28;1906;-75
2023/08/20 04:00:08;;;;;;;;;;;22.50;74.20;;;21.55;63.73;100260.19;10367987;28;850;-74
2023/08/20 04:05:06;;;;;;;;;;;22.50;74.20;;;21.54;63.96;100256.69;10367819;28;1056;-75
2023/08/20 04:10:02;;;;;;;;;;;22.50;74.20;;;21.54;63.79;100269.94;10366476;28;1216;-74
2023/08/20 04:14:57;;;;;;;;;;;22.50;74.20;;;21.55;63.78;100265.50;10367493;28;2032;-74
2023/08/20 04:19:52;;;;;;;;;;;22.50;74.10;;;21.53;63.78;100276.16;10367001;28;870;-74
2023/08/20 04:24:48;;;;;;;;;;;22.50;74.10;;;21.53;63.86;100285.91;10366696;28;818;-75
2023/08/20 04:29:43;;;;;;;;;;;22.40;74.00;;;21.52;63.86;100290.38;10366775;28;1140;-75
2023/08/20 04:34:38;;;;;;;;;;;22.50;74.10;;;21.52;63.79;100292.19;10367048;28;1969;-75
2023/08/20 04:39:34;;;;;;;;;;;22.40;74.00;;;21.51;63.89;100293.97;10366389;28;785;-74
2023/08/20 04:44:29;;;;;;;;;;;22.40;74.00;;;21.50;63.87;100292.25;10366962;28;830;-74
2023/08/20 04:49:28;;;;;;;;;;;22.40;74.00;;;21.51;63.89;100301.94;10366782;28;776;-74
2023/08/20 04:54:23;;;;;;;;;;;22.40;74.00;;;21.50;63.91;100297.53;10365371;28;1902;-74
2023/08/20 04:59:18;;;;;;;;;;;22.40;74.00;;;21.51;64.08;100299.28;10367200;28;858;-75
2023/08/20 05:04:14;;;;;;;;;;;22.40;74.00;;;21.49;63.98;100295.00;10369796;28;1244;-75
2023/08/20 05:09:09;;;;;;;;;;;22.40;74.00;;;21.50;63.98;100312.59;10374149;28;870;-74
2023/08/20 05:14:05;;;;;;;;;;;22.40;74.00;;;21.48;64.08;100315.31;10373877;28;1910;-73
2023/08/20 05:19:00;;;;;;;;;;;22.40;74.00;;;21.48;63.92;100314.47;10373142;28;1247;-74
2023/08/20 05:23:55;;;;;;;;;;;22.40;74.00;;;21.47;64.07;100324.22;10373745;28;858;-74
2023/08/20 05:28:51;;;;;;;;;;;22.40;74.00;;;21.47;63.81;100313.63;10356243;28;1504;-74
2023/08/20 05:33:46;;;;;;;;;;;22.40;74.00;;;21.47;63.88;100313.63;10373715;28;909;-74
2023/08/20 05:38:43;;;;;;;;;;;22.40;74.10;;;21.49;63.78;100322.38;10373167;28;1894;-74
2023/08/20 05:43:38;;;;;;;;;;;22.40;74.10;;;21.51;63.87;100330.22;10372758;28;769;-75
2023/08/20 05:48:34;;;;;;;;;;;22.40;74.10;;;21.52;63.73;100316.03;10373220;28;882;-75
2023/08/20 05:53:29;;;;;;;;;;;22.40;74.10;;;21.52;63.93;100314.25;10372348;28;831;-75
2023/08/20 05:58:24;;;;;;;;;;;22.40;74.10;;;21.53;63.69;100315.09;10372748;28;1961;-75
2023/08/20 06:03:20;;;;;;;;;;;22.40;74.10;;;21.51;63.82;100323.16;10372027;28;819;-74
2023/08/20 06:08:15;;;;;;;;;;;22.40;74.10;;;21.53;63.72;100310.66;10372269;28;1020;-75
2023/08/20 06:13:11;;;;;;;;;;;22.40;74.10;;;21.53;63.68;100312.44;10372153;28;819;-73
2023/08/20 06:18:06;;;;;;;;;;;22.40;74.10;;;21.54;63.90;100314.19;10370831;28;1950;-75
2023/08/20 06:23:02;;;;;;;;;;;22.40;74.10;;;21.51;64.00;100315.19;10371252;28;858;-75
2023/08/20 06:27:57;;;;;;;;;;;22.40;74.10;;;21.52;64.01;100314.25;10371835;28;1095;-76
2023/08/20 06:32:53;;;;;;;;;;;22.40;74.10;;;21.53;63.86;100309.78;10371706;28;858;-76
2023/08/20 06:37:48;;;;;;;;;;;22.40;74.20;;;21.53;63.95;100310.66;10370570;28;1918;-75
2023/08/20 06:42:44;;;;;;;;;;;22.40;74.20;;;21.53;64.08;100305.34;10371097;28;881;-76
2023/08/20 06:47:39;;;;;;;;;;;22.40;74.30;;;21.53;64.23;100310.66;10370477;28;823;-76
2023/08/20 06:52:34;;;;;;;;;;;22.40;74.50;;;21.54;64.21;100314.19;10370128;28;830;-75
2023/08/20 06:57:30;;;;;;;;;;;22.40;74.80;;;21.55;64.31;100319.41;10370492;28;1902;-74
2023/08/20 07:02:26;;;;;;;;;;;22.40;74.90;;;21.55;64.06;100315.88;10369674;28;773;-75
2023/08/20 07:07:22;;;;;;;;;;;22.40;74.80;;;21.54;64.29;100308.88;10369427;28;898;-74
2023/08/20 07:12:17;;;;;;;;;;;22.40;74.60;;;21.54;64.25;100309.72;10369302;28;842;-75
2023/08/20 07:17:12;;;;;;;;;;;22.30;74.60;;;21.54;64.10;100315.03;10369218;28;1917;-75
2023/08/20 07:22:08;;;;;;;;;;;22.40;74.70;;;21.54;64.25;100308.88;10368864;28;834;-74
2023/08/20 07:27:10;;;;;;;;;;;22.30;74.60;;;21.54;63.99;100320.34;10369121;28;861;-74
2023/08/20 07:32:06;;;;;;;;;;;22.40;74.80;;;21.55;64.04;100315.88;10368170;28;1360;-77
2023/08/20 07:37:02;;;;;;;;;;;22.30;74.80;;;21.57;63.97;100311.38;10367132;28;1918;-76
2023/08/20 07:41:58;;;;;;;;;;;22.30;74.80;;;21.56;64.01;100312.28;10366534;28;856;-76
2023/08/20 07:46:53;;;;;;;;;;;22.30;74.80;;;21.57;64.06;100316.69;10367528;28;777;-76
2023/08/20 07:51:52;;;;;;;;;;;22.30;74.90;;;21.57;64.22;100314.88;10349755;28;800;-76
2023/08/20 07:56:47;;;;;;;;;;;22.40;75.10;;;21.57;64.22;100312.22;10366786;28;1914;-75
2023/08/20 08:01:42;;;;;;;;;;;22.30;75.10;;;21.57;64.25;100312.22;10368258;28;878;-76
2023/08/20 08:06:38;;;;;;;;;;;22.30;75.20;;;21.57;64.25;100309.56;10367562;28;943;-76
2023/08/20 08:11:33;;;;;;;;;;;22.30;75.30;;;21.58;64.31;100313.94;10366966;28;815;-76
2023/08/20 08:16:28;;;;;;;;;;;22.30;75.30;;;21.58;64.09;100319.22;10367086;28;1909;-76
2023/08/20 08:21:24;;;;;;;;;;;22.30;75.20;;;21.59;64.21;100317.47;10366857;28;790;-76
2023/08/20 08:26:19;;;;;;;;;;;22.30;75.20;;;21.58;64.07;100327.19;10366265;28;930;-76
2023/08/20 08:31:15;;;;;;;;;;;22.30;75.20;;;21.59;64.16;100334.22;10366331;28;1579;-76
2023/08/20 08:36:11;;;;;;;;;;;22.30;75.10;;;21.60;64.04;100330.63;10366533;28;1918;-76
2023/08/20 08:41:06;;;;;;;;;;;22.30;75.10;;;21.60;64.12;100335.09;10365735;28;822;-76
2023/08/20 08:46:01;;;;;;;;;;;22.30;75.10;;;21.61;64.02;100342.97;10366880;28;889;-75
2023/08/20 08:50:57;;;;;;;;;;;22.30;75.10;;;21.61;64.08;100334.13;10366725;28;802;-76
2023/08/20 08:55:52;;;;;;;;;;;22.30;75.20;;;21.62;64.26;100333.22;10366030;28;1909;-76
2023/08/20 09:00:48;;;;;;;;;;;22.30;75.10;;;21.62;64.05;100327.91;10365322;28;842;-76
2023/08/20 09:05:43;;;;;;;;;;;22.30;75.20;;;21.62;64.12;100331.44;10365044;28;957;-76
2023/08/20 09:10:39;;;;;;;;;;;22.30;75.00;;;21.62;64.03;100334.06;10365595;28;855;-77
2023/08/20 09:15:35;;;;;;;;;;;22.30;75.00;;;21.63;64.18;100338.44;10366188;28;1906;-76
2023/08/20 09:20:30;;;;;;;;;;;22.30;75.00;;;21.64;63.97;100334.88;10366435;28;842;-76
2023/08/20 09:25:28;;;;;;;;;;;22.30;75.00;;;21.65;64.11;100333.91;10365503;28;965;-76
2023/08/20 09:30:24;;;;;;;;;;;22.30;75.10;;;21.64;64.32;100332.22;10365419;28;1325;-76
2023/08/20 09:35:19;;;;;;;;;;;22.30;75.20;;;21.64;64.17;100329.56;10365268;28;2035;-76
2023/08/20 09:40:14;;;;;;;;;;;22.30;75.30;;;21.66;64.26;100327.66;10365137;28;878;-76
2023/08/20 09:45:10;;;;;;;;;;;22.30;75.20;;;21.62;64.17;100323.47;10364408;28;934;-81
2023/08/20 09:50:05;;;;;;;;;;;22.30;75.20;;;21.66;64.05;100325.00;10369295;28;856;-75
2023/08/20 09:55:04;;;;;;;;;;;22.30;75.40;;;21.69;64.07;100333.75;10371786;28;1981;-75
2023/08/20 09:59:59;;;;;;;;;;;22.30;75.20;;;21.64;64.39;100334.88;10372923;28;896;-76
2023/08/20 10:04:55;;;;;;;;;;;22.30;75.50;;;21.66;64.15;100343.59;10372027;28;845;-75
2023/08/20 10:09:52;;;;;;;;;;;22.30;75.60;;;21.70;63.80;100340.81;10371593;28;874;-74
2023/08/20 10:14:47;;;;;;;;;;;22.30;75.50;;;21.64;64.39;100337.53;10371465;28;1975;-74
2023/08/20 10:19:42;;;;;;;;;;;22.30;75.40;;;21.71;63.94;100334.56;10372037;28;777;-73
2023/08/20 10:24:38;;;;;;;;;;;22.30;75.50;;;21.66;63.89;100340.06;10371225;28;957;-74
2023/08/20 10:29:33;;;;;;;;;;;22.30;75.60;;;21.65;64.28;100339.22;10370645;28;1449;-74
2023/08/20 10:34:29;;;;;;;;;;;22.30;75.60;;;21.64;64.19;100336.63;10370372;28;1973;-74
2023/08/20 10:39:25;;;;;;;;;;;22.30;75.70;;;21.63;64.34;100341.09;10371575;28;889;-74
2023/08/20 10:44:20;;;;;;;;;;;22.30;75.70;;;21.63;64.26;100342.88;10371316;28;846;-74
2023/08/20 10:49:15;;;;;;;;;;;22.30;75.70;;;21.70;64.21;100346.09;10370878;28;898;-74
2023/08/20 10:54:11;;;;;;;;;;;22.30;75.70;;;21.73;64.10;100346.81;10370720;28;798;-74
2023/08/20 10:59:06;;;;;;;;;;;22.30;75.70;;;21.68;64.02;100343.53;10370585;28;1902;-75
2023/08/20 11:04:04;;;;;;;;;;;22.30;75.70;;;21.67;64.20;100347.13;10369225;28;913;-74
2023/08/20 11:09:00;;;;;;;;;;;22.30;75.80;;;21.64;64.43;100345.47;10370250;28;1615;-75
2023/08/20 11:13:55;;;;;;;;;;;22.30;75.80;;;21.71;64.13;100332.75;10369260;28;791;-72
2023/08/20 11:18:50;;;;;;;;;;;22.30;75.90;;;21.77;64.03;100336.88;10369042;28;1977;-72
2023/08/20 11:23:46;;;;;;;;;;;22.30;75.80;;;21.75;64.00;100330.81;10369555;28;1002;-72
2023/08/20 11:28:41;;;;;;;;;;;22.30;75.70;;;21.73;63.99;100332.69;10369480;28;1257;-72
2023/08/20 11:33:37;;;;;;;;;;;22.30;75.70;;;21.70;64.21;100332.84;10369076;28;909;-72
2023/08/20 11:38:32;;;;;;;;;;;22.30;75.70;;;21.70;64.00;100330.19;10368113;28;1975;-72
2023/08/20 11:43:27;;;;;;;;;;;22.30;75.80;;;21.71;63.99;100332.75;10368767;28;870;-72
2023/08/20 11:48:23;;;;;;;;;;;22.30;75.80;;;21.78;63.93;100331.50;10368055;28;799;-72
2023/08/20 11:53:18;;;;;;;;;;;22.40;75.90;;;21.79;63.99;100340.31;10368297;28;786;-72
2023/08/20 11:58:14;;;;;;;;;;;22.40;75.90;;;21.78;63.91;100328.00;10367753;28;1906;-72
2023/08/20 12:03:10;;;;;;;;;;;22.40;75.90;;;21.74;63.89;100329.94;10367400;28;882;-74
2023/08/20 12:08:05;;;;;;;;;;;22.40;75.90;;;21.73;64.05;100330.03;10366905;28;1581;-74
2023/08/20 12:13:00;;;;;;;;;;;22.30;75.80;;;21.73;63.88;100325.56;10366665;28;846;-75
2023/08/20 12:17:56;;;;;;;;;;;22.30;75.80;;;21.73;63.85;100330.88;10367729;28;1961;-74
2023/08/20 12:22:52;;;;;;;;;;;22.40;76.00;;;21.75;64.20;100330.81;10366814;28;970;-74
2023/08/20 12:27:47;;;;;;;;;;;22.40;76.00;;;21.74;64.02;100331.72;10366651;28;960;-74
2023/08/20 12:32:42;;;;;;;;;;;22.40;75.90;;;21.73;64.06;100330.88;10359557;28;931;-74
2023/08/20 12:37:38;;;;;;;;;;;22.40;76.00;;;21.76;63.92;100329.88;10366315;28;1971;-74
2023/08/20 12:42:33;;;;;;;;;;;22.40;75.90;;;21.77;64.12;100320.97;10367222;28;814;-75
2023/08/20 12:47:29;;;;;;;;;;;22.40;76.80;;;21.79;63.99;100316.44;10365699;28;842;-74
2023/08/20 12:52:24;;;;;;;;;;;22.40;75.90;;;21.87;63.60;100312.44;10366552;28;857;-74
2023/08/20 12:57:19;;;;;;;;;;;22.40;75.80;;;21.88;63.57;100303.56;10365469;28;1973;-74
2023/08/20 13:02:15;;;;;;;;;;;22.40;75.80;;;21.88;63.75;100308.88;10366678;28;885;-75
2023/08/20 13:07:11;;;;;;;;;;;22.40;75.80;;;21.88;63.78;100303.56;10365784;28;874;-74
2023/08/20 13:12:09;;;;;;;;;;;22.50;76.20;;;21.87;63.93;100307.13;10365801;28;879;-74
2023/08/20 13:17:05;;;;;;;;;;;22.40;76.30;;;21.87;64.10;100304.47;10366442;28;1906;-74
2023/08/20 13:22:00;;;;;;;;;;;22.50;76.70;;;21.87;63.93;100304.47;10366144;28;856;-74
2023/08/20 13:26:56;;;;;;;;;;;22.50;76.70;;;21.97;64.78;100307.53;10372425;28;940;-77
2023/08/20 13:31:51;;;;;;;;;;;22.50;77.60;;;22.05;64.40;100302.69;10408023;28;1204;-74
2023/08/20 13:36:47;;;;;;;;;;;22.50;77.60;;;22.11;63.93;100301.50;10414669;28;1914;-74
2023/08/20 13:41:42;;;;;;;;;;;22.50;77.00;;;22.17;63.69;100310.97;10415222;28;837;-75
2023/08/20 13:46:38;;;;;;;;;;;22.60;77.60;;;22.05;64.14;100301.81;10415997;28;829;-74
2023/08/20 13:51:33;;;;;;;;;;;22.60;77.50;;;22.17;64.11;100311.81;10414254;28;773;-74
2023/08/20 13:56:28;;;;;;;;;;;22.60;77.40;;;22.09;64.01;100304.25;10414471;28;1959;-74
2023/08/20 14:01:24;;;;;;;;;;;22.60;77.00;;;22.23;63.70;100303.53;10413755;28;787;-74
2023/08/20 14:06:19;;;;;;;;;;;22.70;77.30;;;22.10;64.15;100287.38;10413618;28;859;-74
2023/08/20 14:11:15;;;;;;;;;;;22.60;76.80;;;22.12;64.13;100289.09;10413422;28;913;-75
2023/08/20 14:16:10;;;;;;;;;;;22.60;76.80;;;22.32;63.50;100291.56;10413708;28;1960;-75
2023/08/20 14:21:06;;;;;;;;;;;22.70;76.90;;;22.38;63.46;100291.25;10413832;28;875;-75
2023/08/20 14:26:01;;;;;;;;;;;22.80;76.80;;;22.21;64.29;100296.59;10412879;28;785;-74
2023/08/20 14:30:56;;;;;;;;;;;22.70;77.30;;;22.08;64.65;100285.72;10412465;28;1395;-75
2023/08/20 14:35:52;;;;;;;;;;;22.70;77.40;;;22.04;64.58;100287.69;10411354;28;1901;-73
2023/08/20 14:40:47;;;;;;;;;;;22.70;77.40;;;22.03;64.62;100293.06;10412395;28;882;-74
2023/08/20 14:45:43;;;;;;;;;;;22.70;77.30;;;22.02;64.90;100286.91;10412074;28;929;-74
2023/08/20 14:50:38;;;;;;;;;;;22.70;77.80;;;22.02;65.06;100292.22;10411226;28;901;-74
2023/08/20 14:55:33;;;;;;;;;;;22.70;78.00;;;22.01;65.15;100289.66;10410923;28;1897;-73
2023/08/20 15:00:29;;;;;;;;;;;22.60;78.10;;;22.01;65.32;100290.53;10411992;28;872;-74
2023/08/20 15:05:24;;;;;;;;;;;22.70;78.20;;;22.00;65.01;100286.13;10411244;28;867;-74
2023/08/20 15:10:20;;;;;;;;;;;22.60;78.10;;;21.99;65.30;100276.47;10410970;28;873;-73
2023/08/20 15:15:15;;;;;;;;;;;22.70;78.20;;;22.00;65.08;100279.97;10411450;28;1902;-73
2023/08/20 15:20:11;;;;;;;;;;;22.70;78.20;;;22.01;65.08;100285.22;10411248;28;858;-73
2023/08/20 15:25:12;;;;;;;;;;;22.60;78.00;;;22.01;65.21;100279.91;10410462;28;858;-73
2023/08/20 15:30:08;;;;;;;;;;;22.70;78.10;;;22.01;65.07;100279.06;10410654;28;1108;-74
2023/08/20 15:35:05;;;;;;;;;;;22.70;78.00;;;22.01;64.75;100279.06;10409997;28;2027;-76
2023/08/20 15:40:04;;;;;;;;;;;22.70;77.80;;;22.01;65.04;100276.41;10409817;28;846;-73
2023/08/20 15:45:01;;;;;;;;;;;22.70;77.70;;;22.00;64.84;100272.84;10409672;28;905;-77
2023/08/20 15:49:56;;;;;;;;;;;22.70;77.60;;;22.02;65.02;100275.44;10409360;28;862;-73
2023/08/20 15:54:52;;;;;;;;;;;22.70;77.60;;;22.01;64.81;100271.94;10367443;28;2018;-73
2023/08/20 15:59:47;;;;;;;;;;;;;;;22.05;64.70;100275.28;10367341;28;930;-74
2023/08/20 16:04:43;;;;;;;;;;;;;;;22.04;64.75;100271.78;10366431;28;950;-71
2023/08/20 16:09:39;;;;;;;;;;;;;;;22.04;64.92;100277.09;10367340;28;852;-71
2023/08/20 16:14:35;;;;;;;;;;;;;;;22.04;64.73;100276.22;10366654;28;1985;-72
2023/08/20 16:19:31;;;;;;;;;;;;;;;22.04;64.89;100278.88;10366762;28;972;-72
2023/08/20 16:24:28;;;;;;;;;;;;;;;22.03;64.87;100280.69;10366589;28;819;-75
2023/08/20 16:29:24;;;;;;;;;;;;;;;22.05;64.88;100277.94;10367523;28;1132;-75
2023/08/20 16:34:20;;;;;;;;;;;;;;;22.04;64.93;100271.78;10366288;28;783;-72
2023/08/20 16:39:16;;;;;;;;;;;;;;;22.04;64.90;100279.75;10367185;28;1917;-72
2023/08/20 16:44:14;;;;;;;;;;;;;;;22.04;64.75;100277.09;10365883;28;857;-72
2023/08/20 16:49:10;;;;;;;;;;;;;;;22.05;64.77;100278.78;10366284;28;799;-70
2023/08/20 16:54:07;;;;;;;;;;;;;;;22.06;64.96;100283.19;10365760;28;854;-72
2023/08/20 16:59:03;;;;;;;;;;;;;;;22.06;64.73;100291.13;10367664;28;1897;-71
2023/08/20 17:03:59;;;;;;;;;;;;;;;22.06;65.14;100291.13;10375125;28;822;-72
2023/08/20 17:08:54;;;;;;;;;;;;;;;22.06;64.80;100292.91;10374390;28;937;-72
2023/08/20 17:13:51;;;;;;;;;;;;;;;22.05;65.10;100292.06;10374692;28;846;-72
2023/08/20 17:18:47;;;;;;;;;;;;;;;22.06;65.26;100295.56;10373288;28;1898;-72
2023/08/20 17:23:43;;;;;;;;;;;;;;;22.04;65.19;100298.31;10373869;28;814;-72
2023/08/20 17:28:38;;;;;;;;;;;;;;;22.05;65.38;100301.81;10373322;28;1211;-69
2023/08/20 17:33:34;;;;;;;;;;;;;;;22.05;65.21;100300.03;10374199;28;975;-69
2023/08/20 17:38:30;;;;;;;;;;;;;;;22.05;65.32;100302.69;10373350;28;1960;-71
2023/08/20 17:43:26;;;;;;;;;;;;;;;22.06;65.25;100311.50;10373066;28;766;-72
2023/08/20 17:48:22;;;;;;;;;;;;;;;22.05;65.23;100313.28;10373415;28;942;-72
2023/08/20 17:53:18;;;;;;;;;;;;;;;22.05;65.21;100317.75;10373261;28;826;-71
2023/08/20 17:58:15;;;;;;;;;;;;;;;22.05;65.17;100321.25;10372282;28;1897;-72
2023/08/20 18:03:11;;;;;;;;;;;;;;;22.06;65.45;100328.31;10372905;28;860;-70
2023/08/20 18:08:07;;;;;;;;;;;;;;;22.06;65.33;100324.78;10372612;28;881;-72
2023/08/20 18:13:03;;;;;;;;;;;;;;;22.05;65.18;100326.56;10370515;28;948;-72
2023/08/20 18:17:59;;;;;;;;;;;;;;;22.06;65.40;100333.63;10372288;28;1955;-72
2023/08/20 18:22:55;;;;;;;;;;;;;;;22.06;64.97;100327.41;10371440;28;925;-72
2023/08/20 18:27:51;;;;;;;;;;;;;;;22.06;64.91;100330.06;10371777;28;1039;-72
2023/08/20 18:32:48;;;;;;;;;;;;;;;22.06;65.05;100336.28;10371861;28;853;-70
2023/08/20 18:37:43;;;;;;;;;;;;;;;22.06;64.99;100341.59;10370346;28;1977;-72
2023/08/20 18:42:39;;;;;;;;;;;;;;;22.06;65.00;100346.88;10370266;28;862;-72
2023/08/20 18:47:35;;;;;;;;;;;;;;;22.06;65.00;100349.53;10370479;28;779;-72
2023/08/20 18:52:31;;;;;;;;;;;;;;;22.06;65.05;100349.53;10370393;28;874;-72
2023/08/20 18:57:27;;;;;;;;;;;;;;;22.07;64.90;100353.06;10370729;28;1952;-72
2023/08/20 19:02:23;;;;;;;;;;;;;;;22.06;65.07;100353.97;10370549;28;1028;-72
2023/08/20 19:07:19;;;;;;;;;;;;;;;22.05;64.93;100358.44;10369710;28;886;-72
2023/08/20 19:12:15;;;;;;;;;;;;;;;22.07;64.98;100375.16;10370187;28;900;-72
2023/08/20 19:17:10;;;;;;;;;;;;;;;22.08;65.15;100373.34;10369345;28;1893;-71
2023/08/20 19:22:06;;;;;;;;;;;;;;;22.06;64.91;100384.06;10368181;28;1035;-71
2023/08/20 19:27:03;;;;;;;;;;;;;;;22.07;64.96;100384.91;10368974;28;769;-72
2023/08/20 19:31:59;;;;;;;;;;;;;;;22.06;64.76;100384.06;10367929;28;1178;-71
2023/08/20 19:36:55;;;;;;;;;;;;;;;22.07;64.99;100383.09;10368582;28;1914;-72
2023/08/20 19:41:50;;;;;;;;;;;;;;;22.06;64.98;100381.41;10368351;28;925;-71
2023/08/20 19:46:46;;;;;;;;;;;;;;;22.07;64.70;100385.75;10368544;28;883;-71
2023/08/20 19:51:43;;;;;;;;;;;;;;;22.06;64.96;100384.06;10368075;28;1098;-71
2023/08/20 19:56:39;;;;;;;;;;;;;;;22.08;64.83;100381.31;10368264;28;1890;-72
2023/08/20 20:01:35;;;;;;;;;;;;;;;22.07;64.76;100380.44;10368324;28;866;-72
2023/08/20 20:06:31;;;;;;;;;;;;;;;22.08;64.77;100379.50;10366951;28;936;-71
2023/08/20 20:11:27;;;;;;;;;;;;;;;22.09;64.88;100389.19;10367536;28;961;-71
2023/08/20 20:16:23;;;;;;;;;;;;;;;22.09;64.68;100389.19;10366460;28;1945;-71
2023/08/20 20:21:19;;;;;;;;;;;;;;;22.08;64.76;100384.81;10367060;28;759;-71
2023/08/20 20:26:14;;;;;;;;;;;;;;;22.10;64.88;100384.75;10367454;28;791;-72
2023/08/20 20:31:10;;;;;;;;;;;;;;;22.09;64.63;100394.50;10366903;28;1585;-72
2023/08/20 20:36:06;;;;;;;;;;;;;;;22.08;64.73;100390.13;10365725;28;1910;-72
2023/08/20 20:41:05;;;;;;;;;;;;;;;22.07;64.54;100393.72;10366497;28;939;-72
2023/08/20 20:46:00;;;;;;;;;;;;;;;22.07;64.77;100393.72;10366235;28;948;-72
2023/08/20 20:50:56;;;;;;;;;;;;;;;22.08;64.67;100403.41;10366276;28;881;-72
2023/08/20 20:55:52;;;;;;;;;;;;;;;22.08;64.69;100389.28;10366721;28;1897;-72
2023/08/20 21:00:48;;;;;;;;;;;;;;;22.08;64.58;100399.88;10366686;28;933;-72
2023/08/20 21:05:44;;;;;;;;;;;;;;;22.09;64.70;100407.78;10366028;28;949;-72
2023/08/20 21:10:40;;;;;;;;;;;;;;;22.07;64.65;100401.69;10349119;28;731;-71
2023/08/20 21:15:36;;;;;;;;;;;;;;;22.08;64.71;100405.19;10366209;28;1902;-72
2023/08/20 21:20:32;;;;;;;;;;;;;;;22.08;64.46;100406.06;10347650;28;941;-71
2023/08/20 21:25:28;;;;;;;;;;;;;;;22.08;64.57;100399.88;10365784;28;1141;-72
2023/08/20 21:30:24;;;;;;;;;;;;;;;22.08;64.83;100403.41;10365230;28;1247;-72
2023/08/20 21:35:22;;;;;;;;;;;;;;;22.07;64.77;100404.34;10365326;28;1914;-72
2023/08/20 21:40:18;;;;;;;;;;;;;;;22.08;64.55;100398.09;10364744;28;827;-71
2023/08/20 21:45:14;;;;;;;;;;;;;;;22.08;64.63;100403.41;10368997;28;870;-72
2023/08/20 21:50:10;;;;;;;;;;;;;;;22.08;64.69;100406.06;10372862;28;953;-72
2023/08/20 21:55:05;;;;;;;;;;;;;;;22.08;64.64;100397.22;10373368;28;1897;-72
2023/08/20 22:00:02;;;;;;;;;;;;;;;22.08;64.57;100395.44;10371850;28;1414;-72
2023/08/20 22:04:58;;;;;;;;;;;;;;;22.08;64.58;100391.94;10372289;28;845;-72
2023/08/20 22:09:54;;;;;;;;;;;;;;;22.07;64.56;100388.41;10372615;28;830;-72
2023/08/20 22:14:50;;;;;;;;;;;;;;;22.08;64.47;100405.19;10372436;28;1955;-72
2023/08/20 22:19:46;;;;;;;;;;;;;;;22.07;64.56;100396.38;10372295;28;945;-72
2023/08/20 22:24:41;;;;;;;;;;;;;;;22.09;64.38;100398.97;10371533;28;842;-72
2023/08/20 22:29:37;;;;;;;;;;;;;;;22.08;64.21;100398.09;10371060;28;1233;-72
2023/08/20 22:34:33;;;;;;;;;;;;;;;22.07;64.24;100400.84;10371212;28;877;-72
2023/08/20 22:39:30;;;;;;;;;;;;;;;22.07;64.16;100404.34;10370919;28;1906;-72
2023/08/20 22:44:26;;;;;;;;;;;;;;;22.07;64.10;100406.16;10371181;28;862;-72
2023/08/20 22:49:21;;;;;;;;;;;;;;;22.08;64.38;100405.19;10370680;28;954;-72
2023/08/20 22:54:17;;;;;;;;;;;;;;;22.07;64.31;100401.69;10370386;28;842;-71
2023/08/20 22:59:14;;;;;;;;;;;;;;;22.05;64.09;100390.28;10369401;28;1959;-72
2023/08/20 23:04:10;;;;;;;;;;;;;;;22.07;64.37;100396.38;10369958;28;779;-72
2023/08/20 23:09:06;;;;;;;;;;;;;;;22.07;64.23;100392.88;10370395;28;882;-72
2023/08/20 23:14:02;;;;;;;;;;;;;;;22.08;64.40;100398.09;10369096;28;1071;-72
2023/08/20 23:18:58;;;;;;;;;;;;;;;22.07;64.10;100391.06;10369357;28;1885;-72
2023/08/20 23:23:54;;;;;;;;;;;;;;;22.09;64.23;100383.03;10369809;28;759;-72
2023/08/20 23:28:50;;;;;;;;;;;;;;;22.07;64.28;100372.50;10369460;28;1146;-72